sensor_id;sensor_type;location;lat;lon;timestamp;P1;durP1;ratioP1;P2;durP2;ratioP2
48014;SDS011;33780;51.034;7.120;2022-11-15T00:01:19;5.50;;;2.78;;
48014;SDS011;33780;51.034;7.120;2022-11-15T00:03:44;5.32;;;2.30;;
48014;SDS011;33780;51.034;7.120;2022-11-15T00:06:10;3.92;;;2.30;;
48014;SDS011;33780;51.034;7.120;2022-11-15T00:08:36;7.07;;;2.78;;
48014;SDS011;33780;51.034;7.120;2022-11-15T00:11:02;5.72;;;2.70;;
48014;SDS011;33780;51.034;7.120;2022-11-15T00:13:28;5.55;;;2.67;;
48014;SDS011;33780;51.034;7.120;2022-11-15T00:15:56;5.75;;;2.83;;
48014;SDS011;33780;51.034;7.120;2022-11-15T00:18:23;6.72;;;3.05;;
48014;SDS011;33780;51.034;7.120;2022-11-15T00:20:48;4.78;;;2.55;;
48014;SDS011;33780;51.034;7.120;2022-11-15T00:23:14;5.05;;;2.90;;
48014;SDS011;33780;51.034;7.120;2022-11-15T00:25:39;5.97;;;2.75;;
48014;SDS011;33780;51.034;7.120;2022-11-15T00:28:04;5.90;;;2.90;;
48014;SDS011;33780;51.034;7.120;2022-11-15T00:30:30;5.20;;;2.90;;
48014;SDS011;33780;51.034;7.120;2022-11-15T00:32:55;7.43;;;2.70;;
48014;SDS011;33780;51.034;7.120;2022-11-15T00:35:20;6.30;;;2.95;;
48014;SDS011;33780;51.034;7.120;2022-11-15T00:37:46;5.55;;;2.78;;
48014;SDS011;33780;51.034;7.120;2022-11-15T00:40:12;5.40;;;2.90;;
48014;SDS011;33780;51.034;7.120;2022-11-15T00:42:38;5.90;;;2.60;;
48014;SDS011;33780;51.034;7.120;2022-11-15T00:45:03;6.55;;;3.08;;
48014;SDS011;33780;51.034;7.120;2022-11-15T00:47:29;4.70;;;2.50;;
48014;SDS011;33780;51.034;7.120;2022-11-15T00:49:54;6.03;;;2.95;;
48014;SDS011;33780;51.034;7.120;2022-11-15T00:52:20;4.97;;;2.42;;
48014;SDS011;33780;51.034;7.120;2022-11-15T00:54:45;6.30;;;2.97;;
48014;SDS011;33780;51.034;7.120;2022-11-15T00:57:10;5.60;;;2.53;;
48014;SDS011;33780;51.034;7.120;2022-11-15T00:59:35;5.03;;;2.40;;
48014;SDS011;33780;51.034;7.120;2022-11-15T01:02:01;5.80;;;2.40;;
48014;SDS011;33780;51.034;7.120;2022-11-15T01:04:26;4.55;;;2.33;;
48014;SDS011;33780;51.034;7.120;2022-11-15T01:06:52;5.55;;;2.30;;
48014;SDS011;33780;51.034;7.120;2022-11-15T01:09:17;4.63;;;2.40;;
48014;SDS011;33780;51.034;7.120;2022-11-15T01:11:42;5.80;;;2.35;;
48014;SDS011;33780;51.034;7.120;2022-11-15T01:14:07;4.00;;;2.20;;
48014;SDS011;33780;51.034;7.120;2022-11-15T01:16:33;5.93;;;2.50;;
48014;SDS011;33780;51.034;7.120;2022-11-15T01:18:58;4.18;;;2.08;;
48014;SDS011;33780;51.034;7.120;2022-11-15T01:21:24;6.35;;;2.30;;
48014;SDS011;33780;51.034;7.120;2022-11-15T01:23:52;5.50;;;2.30;;
48014;SDS011;33780;51.034;7.120;2022-11-15T01:26:19;5.18;;;2.40;;
48014;SDS011;33780;51.034;7.120;2022-11-15T01:28:44;4.25;;;2.35;;
48014;SDS011;33780;51.034;7.120;2022-11-15T01:31:12;5.85;;;2.58;;
48014;SDS011;33780;51.034;7.120;2022-11-15T01:33:39;4.50;;;2.17;;
48014;SDS011;33780;51.034;7.120;2022-11-15T01:36:06;5.00;;;2.35;;
48014;SDS011;33780;51.034;7.120;2022-11-15T01:38:36;4.68;;;2.17;;
48014;SDS011;33780;51.034;7.120;2022-11-15T01:41:02;4.05;;;2.20;;
48014;SDS011;33780;51.034;7.120;2022-11-15T01:43:29;4.15;;;2.05;;
48014;SDS011;33780;51.034;7.120;2022-11-15T01:45:58;5.45;;;2.20;;
48014;SDS011;33780;51.034;7.120;2022-11-15T01:48:31;7.10;;;2.38;;
48014;SDS011;33780;51.034;7.120;2022-11-15T01:51:04;5.25;;;2.50;;
48014;SDS011;33780;51.034;7.120;2022-11-15T01:53:33;5.35;;;2.30;;
48014;SDS011;33780;51.034;7.120;2022-11-15T01:56:04;4.03;;;2.25;;
48014;SDS011;33780;51.034;7.120;2022-11-15T01:58:32;5.07;;;2.43;;
48014;SDS011;33780;51.034;7.120;2022-11-15T02:00:59;4.53;;;2.47;;
48014;SDS011;33780;51.034;7.120;2022-11-15T02:03:27;4.25;;;2.40;;
48014;SDS011;33780;51.034;7.120;2022-11-15T02:06:02;4.03;;;2.15;;
48014;SDS011;33780;51.034;7.120;2022-11-15T02:08:30;3.97;;;2.10;;
48014;SDS011;33780;51.034;7.120;2022-11-15T02:10:55;5.57;;;2.38;;
48014;SDS011;33780;51.034;7.120;2022-11-15T02:13:20;4.32;;;2.25;;
48014;SDS011;33780;51.034;7.120;2022-11-15T02:16:10;5.28;;;2.30;;
48014;SDS011;33780;51.034;7.120;2022-11-15T02:21:36;3.88;;;2.08;;
48014;SDS011;33780;51.034;7.120;2022-11-15T02:24:16;4.75;;;2.30;;
48014;SDS011;33780;51.034;7.120;2022-11-15T02:27:04;7.85;;;2.60;;
48014;SDS011;33780;51.034;7.120;2022-11-15T02:29:41;5.47;;;2.50;;
48014;SDS011;33780;51.034;7.120;2022-11-15T02:32:15;5.55;;;1.95;;
48014;SDS011;33780;51.034;7.120;2022-11-15T02:38:17;5.03;;;2.22;;
48014;SDS011;33780;51.034;7.120;2022-11-15T02:40:57;6.35;;;2.58;;
48014;SDS011;33780;51.034;7.120;2022-11-15T02:43:46;5.82;;;2.60;;
48014;SDS011;33780;51.034;7.120;2022-11-15T02:46:31;5.20;;;2.33;;
48014;SDS011;33780;51.034;7.120;2022-11-15T02:49:29;5.18;;;2.83;;
48014;SDS011;33780;51.034;7.120;2022-11-15T02:51:58;6.25;;;2.78;;
48014;SDS011;33780;51.034;7.120;2022-11-15T02:54:28;4.40;;;2.38;;
48014;SDS011;33780;51.034;7.120;2022-11-15T02:56:56;6.78;;;2.50;;
48014;SDS011;33780;51.034;7.120;2022-11-15T03:02:25;5.65;;;2.60;;
48014;SDS011;33780;51.034;7.120;2022-11-15T03:05:08;6.55;;;2.90;;
48014;SDS011;33780;51.034;7.120;2022-11-15T03:07:44;5.00;;;2.30;;
48014;SDS011;33780;51.034;7.120;2022-11-15T03:10:18;4.82;;;2.58;;
48014;SDS011;33780;51.034;7.120;2022-11-15T03:13:14;4.95;;;2.42;;
48014;SDS011;33780;51.034;7.120;2022-11-15T03:16:10;5.95;;;3.03;;
48014;SDS011;33780;51.034;7.120;2022-11-15T03:18:44;5.18;;;2.67;;
48014;SDS011;33780;51.034;7.120;2022-11-15T03:21:14;5.57;;;2.63;;
48014;SDS011;33780;51.034;7.120;2022-11-15T03:23:43;5.18;;;2.45;;
48014;SDS011;33780;51.034;7.120;2022-11-15T03:26:12;6.70;;;2.83;;
48014;SDS011;33780;51.034;7.120;2022-11-15T03:28:43;4.35;;;2.42;;
48014;SDS011;33780;51.034;7.120;2022-11-15T03:31:15;4.85;;;2.60;;
48014;SDS011;33780;51.034;7.120;2022-11-15T03:34:03;4.15;;;2.38;;
48014;SDS011;33780;51.034;7.120;2022-11-15T03:36:32;5.50;;;2.85;;
48014;SDS011;33780;51.034;7.120;2022-11-15T03:39:00;4.40;;;2.20;;
48014;SDS011;33780;51.034;7.120;2022-11-15T03:44:27;5.97;;;2.70;;
48014;SDS011;33780;51.034;7.120;2022-11-15T03:47:09;5.03;;;2.50;;
48014;SDS011;33780;51.034;7.120;2022-11-15T03:49:46;6.55;;;2.40;;
48014;SDS011;33780;51.034;7.120;2022-11-15T03:52:19;4.80;;;2.42;;
48014;SDS011;33780;51.034;7.120;2022-11-15T03:54:50;4.50;;;2.22;;
48014;SDS011;33780;51.034;7.120;2022-11-15T03:57:17;5.07;;;2.25;;
48014;SDS011;33780;51.034;7.120;2022-11-15T03:59:42;4.30;;;2.40;;
48014;SDS011;33780;51.034;7.120;2022-11-15T04:02:08;4.88;;;2.30;;
48014;SDS011;33780;51.034;7.120;2022-11-15T04:04:33;4.20;;;1.90;;
48014;SDS011;33780;51.034;7.120;2022-11-15T04:06:58;5.25;;;2.47;;
48014;SDS011;33780;51.034;7.120;2022-11-15T04:09:24;6.55;;;2.90;;
48014;SDS011;33780;51.034;7.120;2022-11-15T04:11:49;5.10;;;2.65;;
48014;SDS011;33780;51.034;7.120;2022-11-15T04:14:14;6.63;;;2.60;;
48014;SDS011;33780;51.034;7.120;2022-11-15T04:16:39;5.38;;;2.85;;
48014;SDS011;33780;51.034;7.120;2022-11-15T04:19:05;6.35;;;3.22;;
48014;SDS011;33780;51.034;7.120;2022-11-15T04:21:49;6.72;;;2.58;;
48014;SDS011;33780;51.034;7.120;2022-11-15T04:24:33;4.95;;;2.45;;
48014;SDS011;33780;51.034;7.120;2022-11-15T04:26:58;4.13;;;2.50;;
48014;SDS011;33780;51.034;7.120;2022-11-15T04:29:24;6.53;;;2.58;;
48014;SDS011;33780;51.034;7.120;2022-11-15T04:32:02;5.22;;;2.47;;
48014;SDS011;33780;51.034;7.120;2022-11-15T04:34:28;4.78;;;2.50;;
48014;SDS011;33780;51.034;7.120;2022-11-15T04:36:54;4.57;;;2.60;;
48014;SDS011;33780;51.034;7.120;2022-11-15T04:39:38;4.45;;;2.35;;
48014;SDS011;33780;51.034;7.120;2022-11-15T04:42:03;4.55;;;2.42;;
48014;SDS011;33780;51.034;7.120;2022-11-15T04:44:29;5.30;;;2.33;;
48014;SDS011;33780;51.034;7.120;2022-11-15T04:46:54;3.72;;;2.30;;
48014;SDS011;33780;51.034;7.120;2022-11-15T04:49:19;5.07;;;2.47;;
48014;SDS011;33780;51.034;7.120;2022-11-15T04:51:45;4.72;;;2.50;;
48014;SDS011;33780;51.034;7.120;2022-11-15T04:54:10;5.00;;;2.50;;
48014;SDS011;33780;51.034;7.120;2022-11-15T04:56:35;6.93;;;2.47;;
48014;SDS011;33780;51.034;7.120;2022-11-15T04:59:01;4.30;;;2.45;;
48014;SDS011;33780;51.034;7.120;2022-11-15T05:01:26;5.15;;;2.70;;
48014;SDS011;33780;51.034;7.120;2022-11-15T05:03:51;4.03;;;2.28;;
48014;SDS011;33780;51.034;7.120;2022-11-15T05:06:35;4.55;;;2.38;;
48014;SDS011;33780;51.034;7.120;2022-11-15T05:09:00;4.30;;;2.60;;
48014;SDS011;33780;51.034;7.120;2022-11-15T05:11:26;4.00;;;2.35;;
48014;SDS011;33780;51.034;7.120;2022-11-15T05:13:52;4.63;;;2.47;;
48014;SDS011;33780;51.034;7.120;2022-11-15T05:16:18;4.90;;;2.20;;
48014;SDS011;33780;51.034;7.120;2022-11-15T05:18:43;4.13;;;2.00;;
48014;SDS011;33780;51.034;7.120;2022-11-15T05:21:09;4.75;;;2.13;;
48014;SDS011;33780;51.034;7.120;2022-11-15T05:23:36;4.28;;;2.30;;
48014;SDS011;33780;51.034;7.120;2022-11-15T05:26:03;4.32;;;2.30;;
48014;SDS011;33780;51.034;7.120;2022-11-15T05:28:29;3.42;;;1.75;;
48014;SDS011;33780;51.034;7.120;2022-11-15T05:31:06;5.78;;;2.25;;
48014;SDS011;33780;51.034;7.120;2022-11-15T05:33:33;4.68;;;2.17;;
48014;SDS011;33780;51.034;7.120;2022-11-15T05:36:02;3.47;;;2.00;;
48014;SDS011;33780;51.034;7.120;2022-11-15T05:38:32;3.33;;;1.65;;
48014;SDS011;33780;51.034;7.120;2022-11-15T05:40:59;3.60;;;2.00;;
48014;SDS011;33780;51.034;7.120;2022-11-15T05:43:25;4.10;;;1.90;;
48014;SDS011;33780;51.034;7.120;2022-11-15T05:45:50;2.85;;;1.45;;
48014;SDS011;33780;51.034;7.120;2022-11-15T05:48:16;3.17;;;1.70;;
48014;SDS011;33780;51.034;7.120;2022-11-15T05:50:42;3.75;;;1.60;;
48014;SDS011;33780;51.034;7.120;2022-11-15T05:53:10;4.55;;;1.83;;
48014;SDS011;33780;51.034;7.120;2022-11-15T05:55:38;2.75;;;1.52;;
48014;SDS011;33780;51.034;7.120;2022-11-15T05:58:04;3.63;;;1.80;;
48014;SDS011;33780;51.034;7.120;2022-11-15T06:00:30;3.65;;;1.55;;
48014;SDS011;33780;51.034;7.120;2022-11-15T06:02:55;3.40;;;1.55;;
48014;SDS011;33780;51.034;7.120;2022-11-15T06:05:20;4.00;;;1.60;;
48014;SDS011;33780;51.034;7.120;2022-11-15T06:07:45;4.50;;;1.92;;
48014;SDS011;33780;51.034;7.120;2022-11-15T06:10:11;3.97;;;1.60;;
48014;SDS011;33780;51.034;7.120;2022-11-15T06:12:36;2.47;;;1.30;;
48014;SDS011;33780;51.034;7.120;2022-11-15T06:15:01;2.50;;;1.58;;
48014;SDS011;33780;51.034;7.120;2022-11-15T06:17:27;3.03;;;1.48;;
48014;SDS011;33780;51.034;7.120;2022-11-15T06:19:53;2.70;;;1.27;;
48014;SDS011;33780;51.034;7.120;2022-11-15T06:22:18;3.08;;;1.48;;
48014;SDS011;33780;51.034;7.120;2022-11-15T06:24:44;2.63;;;1.30;;
48014;SDS011;33780;51.034;7.120;2022-11-15T06:27:10;2.80;;;1.30;;
48014;SDS011;33780;51.034;7.120;2022-11-15T06:29:36;3.50;;;1.40;;
48014;SDS011;33780;51.034;7.120;2022-11-15T06:32:01;3.35;;;1.30;;
48014;SDS011;33780;51.034;7.120;2022-11-15T06:34:26;2.95;;;1.17;;
48014;SDS011;33780;51.034;7.120;2022-11-15T06:36:51;4.18;;;1.40;;
48014;SDS011;33780;51.034;7.120;2022-11-15T06:39:17;2.22;;;1.20;;
48014;SDS011;33780;51.034;7.120;2022-11-15T06:41:42;2.20;;;1.15;;
48014;SDS011;33780;51.034;7.120;2022-11-15T06:44:07;2.08;;;1.10;;
48014;SDS011;33780;51.034;7.120;2022-11-15T06:46:32;2.20;;;1.17;;
48014;SDS011;33780;51.034;7.120;2022-11-15T06:48:58;2.55;;;1.10;;
48014;SDS011;33780;51.034;7.120;2022-11-15T06:51:23;3.15;;;1.02;;
48014;SDS011;33780;51.034;7.120;2022-11-15T06:53:48;2.45;;;1.25;;
48014;SDS011;33780;51.034;7.120;2022-11-15T06:56:13;1.95;;;1.10;;
48014;SDS011;33780;51.034;7.120;2022-11-15T06:58:39;3.35;;;1.05;;
48014;SDS011;33780;51.034;7.120;2022-11-15T07:01:05;2.88;;;1.10;;
48014;SDS011;33780;51.034;7.120;2022-11-15T07:03:34;2.38;;;1.27;;
48014;SDS011;33780;51.034;7.120;2022-11-15T07:06:00;1.88;;;1.00;;
48014;SDS011;33780;51.034;7.120;2022-11-15T07:08:26;3.67;;;1.17;;
48014;SDS011;33780;51.034;7.120;2022-11-15T07:10:53;3.30;;;1.33;;
48014;SDS011;33780;51.034;7.120;2022-11-15T07:13:18;2.03;;;1.17;;
48014;SDS011;33780;51.034;7.120;2022-11-15T07:15:43;2.95;;;1.30;;
48014;SDS011;33780;51.034;7.120;2022-11-15T07:18:09;2.45;;;1.05;;
48014;SDS011;33780;51.034;7.120;2022-11-15T07:20:34;1.90;;;1.00;;
48014;SDS011;33780;51.034;7.120;2022-11-15T07:23:00;2.63;;;0.93;;
48014;SDS011;33780;51.034;7.120;2022-11-15T07:25:26;4.15;;;1.17;;
48014;SDS011;33780;51.034;7.120;2022-11-15T07:27:55;1.40;;;0.85;;
48014;SDS011;33780;51.034;7.120;2022-11-15T07:30:21;2.00;;;0.90;;
48014;SDS011;33780;51.034;7.120;2022-11-15T07:32:47;2.17;;;0.85;;
48014;SDS011;33780;51.034;7.120;2022-11-15T07:35:12;2.10;;;0.80;;
48014;SDS011;33780;51.034;7.120;2022-11-15T07:37:37;3.35;;;1.08;;
48014;SDS011;33780;51.034;7.120;2022-11-15T07:40:03;2.05;;;0.90;;
48014;SDS011;33780;51.034;7.120;2022-11-15T07:42:30;1.77;;;0.93;;
48014;SDS011;33780;51.034;7.120;2022-11-15T07:45:15;2.33;;;1.00;;
48014;SDS011;33780;51.034;7.120;2022-11-15T07:47:40;2.10;;;0.98;;
48014;SDS011;33780;51.034;7.120;2022-11-15T07:50:09;2.10;;;1.13;;
48014;SDS011;33780;51.034;7.120;2022-11-15T07:52:34;1.95;;;0.90;;
48014;SDS011;33780;51.034;7.120;2022-11-15T07:55:00;1.83;;;0.90;;
48014;SDS011;33780;51.034;7.120;2022-11-15T07:57:25;2.83;;;1.00;;
48014;SDS011;33780;51.034;7.120;2022-11-15T07:59:51;2.20;;;1.10;;
48014;SDS011;33780;51.034;7.120;2022-11-15T08:02:16;2.13;;;0.90;;
48014;SDS011;33780;51.034;7.120;2022-11-15T08:04:42;2.83;;;0.90;;
48014;SDS011;33780;51.034;7.120;2022-11-15T08:07:08;1.75;;;0.98;;
48014;SDS011;33780;51.034;7.120;2022-11-15T08:09:34;1.60;;;0.90;;
48014;SDS011;33780;51.034;7.120;2022-11-15T08:11:59;1.95;;;0.90;;
48014;SDS011;33780;51.034;7.120;2022-11-15T08:14:24;2.05;;;0.90;;
48014;SDS011;33780;51.034;7.120;2022-11-15T08:16:49;1.70;;;0.80;;
48014;SDS011;33780;51.034;7.120;2022-11-15T08:19:15;1.55;;;0.80;;
48014;SDS011;33780;51.034;7.120;2022-11-15T08:21:40;2.13;;;0.88;;
48014;SDS011;33780;51.034;7.120;2022-11-15T08:24:14;1.63;;;0.80;;
48014;SDS011;33780;51.034;7.120;2022-11-15T08:26:40;1.83;;;0.82;;
48014;SDS011;33780;51.034;7.120;2022-11-15T08:29:05;2.92;;;0.80;;
48014;SDS011;33780;51.034;7.120;2022-11-15T08:31:33;1.77;;;0.80;;
48014;SDS011;33780;51.034;7.120;2022-11-15T08:34:00;1.73;;;0.80;;
48014;SDS011;33780;51.034;7.120;2022-11-15T08:36:25;1.58;;;0.75;;
48014;SDS011;33780;51.034;7.120;2022-11-15T08:38:51;2.88;;;0.85;;
48014;SDS011;33780;51.034;7.120;2022-11-15T08:41:30;1.67;;;0.90;;
48014;SDS011;33780;51.034;7.120;2022-11-15T08:43:58;2.42;;;1.10;;
48014;SDS011;33780;51.034;7.120;2022-11-15T08:46:23;1.48;;;0.70;;
48014;SDS011;33780;51.034;7.120;2022-11-15T08:48:48;1.80;;;0.80;;
48014;SDS011;33780;51.034;7.120;2022-11-15T08:51:14;1.70;;;0.77;;
48014;SDS011;33780;51.034;7.120;2022-11-15T08:53:40;1.20;;;0.57;;
48014;SDS011;33780;51.034;7.120;2022-11-15T08:56:08;1.80;;;0.70;;
48014;SDS011;33780;51.034;7.120;2022-11-15T08:58:35;1.80;;;0.70;;
48014;SDS011;33780;51.034;7.120;2022-11-15T09:01:01;1.40;;;0.80;;
48014;SDS011;33780;51.034;7.120;2022-11-15T09:03:27;2.33;;;0.93;;
48014;SDS011;33780;51.034;7.120;2022-11-15T09:05:56;2.00;;;1.00;;
48014;SDS011;33780;51.034;7.120;2022-11-15T09:10:53;1.25;;;0.65;;
48014;SDS011;33780;51.034;7.120;2022-11-15T09:13:19;1.60;;;0.60;;
48014;SDS011;33780;51.034;7.120;2022-11-15T09:15:44;2.40;;;0.85;;
48014;SDS011;33780;51.034;7.120;2022-11-15T09:18:11;2.05;;;0.82;;
48014;SDS011;33780;51.034;7.120;2022-11-15T09:20:36;3.38;;;1.02;;
48014;SDS011;33780;51.034;7.120;2022-11-15T09:23:02;2.28;;;0.88;;
48014;SDS011;33780;51.034;7.120;2022-11-15T09:25:29;1.58;;;0.60;;
48014;SDS011;33780;51.034;7.120;2022-11-15T09:27:54;1.95;;;0.80;;
48014;SDS011;33780;51.034;7.120;2022-11-15T09:30:20;1.95;;;0.70;;
48014;SDS011;33780;51.034;7.120;2022-11-15T09:32:45;1.98;;;0.80;;
48014;SDS011;33780;51.034;7.120;2022-11-15T09:35:11;2.17;;;0.60;;
48014;SDS011;33780;51.034;7.120;2022-11-15T09:37:36;1.58;;;0.70;;
48014;SDS011;33780;51.034;7.120;2022-11-15T09:40:01;1.70;;;0.80;;
48014;SDS011;33780;51.034;7.120;2022-11-15T09:45:27;1.58;;;0.50;;
48014;SDS011;33780;51.034;7.120;2022-11-15T09:50:41;2.47;;;0.73;;
48014;SDS011;33780;51.034;7.120;2022-11-15T09:54:20;1.80;;;0.63;;
48014;SDS011;33780;51.034;7.120;2022-11-15T09:56:29;1.00;;;0.40;;
48014;SDS011;33780;51.034;7.120;2022-11-15T10:01:59;1.40;;;0.60;;
48014;SDS011;33780;51.034;7.120;2022-11-15T10:04:36;2.33;;;0.70;;
48014;SDS011;33780;51.034;7.120;2022-11-15T10:07:04;1.40;;;0.60;;
48014;SDS011;33780;51.034;7.120;2022-11-15T10:09:47;1.35;;;0.60;;
48014;SDS011;33780;51.034;7.120;2022-11-15T10:12:13;1.25;;;0.60;;
48014;SDS011;33780;51.034;7.120;2022-11-15T10:14:40;1.42;;;0.60;;
48014;SDS011;33780;51.034;7.120;2022-11-15T10:17:14;1.65;;;0.65;;
48014;SDS011;33780;51.034;7.120;2022-11-15T10:20:19;1.70;;;0.60;;
48014;SDS011;33780;51.034;7.120;2022-11-15T10:23:10;2.42;;;0.70;;
48014;SDS011;33780;51.034;7.120;2022-11-15T10:25:35;2.38;;;0.70;;
48014;SDS011;33780;51.034;7.120;2022-11-15T10:28:47;1.73;;;0.52;;
48014;SDS011;33780;51.034;7.120;2022-11-15T10:30:55;1.48;;;0.60;;
48014;SDS011;33780;51.034;7.120;2022-11-15T10:33:37;4.22;;;0.73;;
48014;SDS011;33780;51.034;7.120;2022-11-15T10:41:19;2.05;;;0.50;;
48014;SDS011;33780;51.034;7.120;2022-11-15T10:46:32;2.22;;;0.47;;
48014;SDS011;33780;51.034;7.120;2022-11-15T10:49:11;3.80;;;0.60;;
48014;SDS011;33780;51.034;7.120;2022-11-15T10:51:48;1.23;;;0.60;;
48014;SDS011;33780;51.034;7.120;2022-11-15T10:54:22;1.00;;;0.40;;
48014;SDS011;33780;51.034;7.120;2022-11-15T10:56:53;1.70;;;0.40;;
48014;SDS011;33780;51.034;7.120;2022-11-15T10:59:27;0.70;;;0.35;;
48014;SDS011;33780;51.034;7.120;2022-11-15T11:01:55;0.90;;;0.40;;
48014;SDS011;33780;51.034;7.120;2022-11-15T11:04:21;1.20;;;0.30;;
48014;SDS011;33780;51.034;7.120;2022-11-15T11:06:47;1.40;;;0.40;;
48014;SDS011;33780;51.034;7.120;2022-11-15T11:09:22;2.53;;;0.50;;
48014;SDS011;33780;51.034;7.120;2022-11-15T11:11:53;2.40;;;0.50;;
48014;SDS011;33780;51.034;7.120;2022-11-15T11:14:25;2.58;;;0.40;;
48014;SDS011;33780;51.034;7.120;2022-11-15T11:22:36;1.50;;;0.70;;
48014;SDS011;33780;51.034;7.120;2022-11-15T11:25:36;0.95;;;0.35;;
48014;SDS011;33780;51.034;7.120;2022-11-15T11:30:40;2.63;;;0.50;;
48014;SDS011;33780;51.034;7.120;2022-11-15T11:33:30;1.30;;;0.50;;
48014;SDS011;33780;51.034;7.120;2022-11-15T11:42:07;2.03;;;0.40;;
48014;SDS011;33780;51.034;7.120;2022-11-15T11:47:26;4.68;;;0.40;;
48014;SDS011;33780;51.034;7.120;2022-11-15T11:50:04;3.22;;;0.40;;
48014;SDS011;33780;51.034;7.120;2022-11-15T11:52:59;0.52;;;0.20;;
48014;SDS011;33780;51.034;7.120;2022-11-15T11:55:44;2.70;;;0.40;;
48014;SDS011;33780;51.034;7.120;2022-11-15T11:58:14;1.08;;;0.50;;
48014;SDS011;33780;51.034;7.120;2022-11-15T12:15:04;2.17;;;0.40;;
48014;SDS011;33780;51.034;7.120;2022-11-15T12:17:41;1.10;;;0.40;;
48014;SDS011;33780;51.034;7.120;2022-11-15T12:20:14;1.25;;;0.50;;
48014;SDS011;33780;51.034;7.120;2022-11-15T12:23:00;2.63;;;0.38;;
48014;SDS011;33780;51.034;7.120;2022-11-15T12:30:48;0.77;;;0.28;;
48014;SDS011;33780;51.034;7.120;2022-11-15T12:33:33;0.63;;;0.20;;
48014;SDS011;33780;51.034;7.120;2022-11-15T12:36:09;0.75;;;0.30;;
48014;SDS011;33780;51.034;7.120;2022-11-15T12:38:52;1.75;;;0.40;;
48014;SDS011;33780;51.034;7.120;2022-11-15T12:41:29;1.58;;;0.63;;
48014;SDS011;33780;51.034;7.120;2022-11-15T12:43:56;0.43;;;0.30;;
48014;SDS011;33780;51.034;7.120;2022-11-15T12:56:47;0.50;;;0.20;;
48014;SDS011;33780;51.034;7.120;2022-11-15T12:59:50;1.40;;;0.38;;
48014;SDS011;33780;51.034;7.120;2022-11-15T13:04:43;0.75;;;0.30;;
48014;SDS011;33780;51.034;7.120;2022-11-15T13:07:08;2.47;;;0.50;;
48014;SDS011;33780;51.034;7.120;2022-11-15T13:09:59;2.08;;;0.40;;
48014;SDS011;33780;51.034;7.120;2022-11-15T13:14:54;1.43;;;0.40;;
48014;SDS011;33780;51.034;7.120;2022-11-15T13:19:48;0.65;;;0.38;;
48014;SDS011;33780;51.034;7.120;2022-11-15T13:22:20;1.38;;;0.50;;
48014;SDS011;33780;51.034;7.120;2022-11-15T13:25:04;1.25;;;0.40;;
48014;SDS011;33780;51.034;7.120;2022-11-15T13:27:40;0.82;;;0.30;;
48014;SDS011;33780;51.034;7.120;2022-11-15T13:30:12;2.13;;;0.43;;
48014;SDS011;33780;51.034;7.120;2022-11-15T13:32:40;1.88;;;0.52;;
48014;SDS011;33780;51.034;7.120;2022-11-15T13:35:06;1.35;;;0.50;;
48014;SDS011;33780;51.034;7.120;2022-11-15T13:37:31;1.10;;;0.55;;
48014;SDS011;33780;51.034;7.120;2022-11-15T13:40:21;1.40;;;0.60;;
48014;SDS011;33780;51.034;7.120;2022-11-15T13:42:46;1.88;;;0.52;;
48014;SDS011;33780;51.034;7.120;2022-11-15T13:45:13;1.58;;;0.68;;
48014;SDS011;33780;51.034;7.120;2022-11-15T13:47:41;1.98;;;0.77;;
48014;SDS011;33780;51.034;7.120;2022-11-15T13:50:10;3.58;;;0.82;;
48014;SDS011;33780;51.034;7.120;2022-11-15T13:52:36;2.47;;;1.02;;
48014;SDS011;33780;51.034;7.120;2022-11-15T13:57:41;3.80;;;1.30;;
48014;SDS011;33780;51.034;7.120;2022-11-15T14:02:55;1.50;;;0.82;;
48014;SDS011;33780;51.034;7.120;2022-11-15T14:05:22;2.88;;;0.82;;
48014;SDS011;33780;51.034;7.120;2022-11-15T14:07:52;2.33;;;0.98;;
48014;SDS011;33780;51.034;7.120;2022-11-15T14:13:01;1.70;;;0.95;;
48014;SDS011;33780;51.034;7.120;2022-11-15T14:15:32;1.98;;;1.05;;
48014;SDS011;33780;51.034;7.120;2022-11-15T14:17:59;2.38;;;1.00;;
48014;SDS011;33780;51.034;7.120;2022-11-15T14:22:54;1.50;;;0.70;;
48014;SDS011;33780;51.034;7.120;2022-11-15T14:25:28;2.33;;;0.90;;
48014;SDS011;33780;51.034;7.120;2022-11-15T14:28:09;1.40;;;0.57;;
48014;SDS011;33780;51.034;7.120;2022-11-15T14:30:39;2.17;;;0.75;;
48014;SDS011;33780;51.034;7.120;2022-11-15T14:35:55;1.75;;;1.05;;
48014;SDS011;33780;51.034;7.120;2022-11-15T14:38:22;1.65;;;0.85;;
48014;SDS011;33780;51.034;7.120;2022-11-15T14:40:48;1.40;;;0.70;;
48014;SDS011;33780;51.034;7.120;2022-11-15T14:43:14;2.03;;;0.70;;
48014;SDS011;33780;51.034;7.120;2022-11-15T14:45:39;1.17;;;0.65;;
48014;SDS011;33780;51.034;7.120;2022-11-15T14:48:05;1.42;;;0.70;;
48014;SDS011;33780;51.034;7.120;2022-11-15T14:50:31;1.60;;;0.90;;
48014;SDS011;33780;51.034;7.120;2022-11-15T14:52:58;3.08;;;0.70;;
48014;SDS011;33780;51.034;7.120;2022-11-15T14:55:30;1.90;;;0.80;;
48014;SDS011;33780;51.034;7.120;2022-11-15T14:58:04;3.35;;;0.90;;
48014;SDS011;33780;51.034;7.120;2022-11-15T15:00:33;2.58;;;0.82;;
48014;SDS011;33780;51.034;7.120;2022-11-15T15:02:59;2.50;;;0.90;;
48014;SDS011;33780;51.034;7.120;2022-11-15T15:05:38;1.52;;;0.77;;
48014;SDS011;33780;51.034;7.120;2022-11-15T15:10:34;1.30;;;0.63;;
48014;SDS011;33780;51.034;7.120;2022-11-15T15:13:01;3.78;;;0.90;;
48014;SDS011;33780;51.034;7.120;2022-11-15T15:15:33;2.10;;;0.90;;
48014;SDS011;33780;51.034;7.120;2022-11-15T15:18:01;1.92;;;0.80;;
48014;SDS011;33780;51.034;7.120;2022-11-15T15:20:27;1.20;;;0.50;;
48014;SDS011;33780;51.034;7.120;2022-11-15T15:22:53;1.45;;;0.60;;
48014;SDS011;33780;51.034;7.120;2022-11-15T15:28:00;1.33;;;0.70;;
48014;SDS011;33780;51.034;7.120;2022-11-15T15:30:27;2.60;;;0.60;;
48014;SDS011;33780;51.034;7.120;2022-11-15T15:32:53;1.45;;;0.80;;
48014;SDS011;33780;51.034;7.120;2022-11-15T15:35:19;2.67;;;0.85;;
48014;SDS011;33780;51.034;7.120;2022-11-15T15:37:45;1.40;;;0.80;;
48014;SDS011;33780;51.034;7.120;2022-11-15T15:40:19;1.30;;;0.70;;
48014;SDS011;33780;51.034;7.120;2022-11-15T15:42:49;1.58;;;0.70;;
48014;SDS011;33780;51.034;7.120;2022-11-15T15:45:15;1.67;;;0.80;;
48014;SDS011;33780;51.034;7.120;2022-11-15T15:47:42;1.90;;;0.75;;
48014;SDS011;33780;51.034;7.120;2022-11-15T15:50:30;1.90;;;0.95;;
48014;SDS011;33780;51.034;7.120;2022-11-15T15:52:56;1.83;;;0.80;;
48014;SDS011;33780;51.034;7.120;2022-11-15T15:55:23;1.95;;;0.70;;
48014;SDS011;33780;51.034;7.120;2022-11-15T15:57:49;1.80;;;0.63;;
48014;SDS011;33780;51.034;7.120;2022-11-15T16:00:15;1.90;;;0.82;;
48014;SDS011;33780;51.034;7.120;2022-11-15T16:02:41;1.50;;;0.90;;
48014;SDS011;33780;51.034;7.120;2022-11-15T16:05:07;3.10;;;1.27;;
48014;SDS011;33780;51.034;7.120;2022-11-15T16:07:34;2.13;;;0.80;;
48014;SDS011;33780;51.034;7.120;2022-11-15T16:09:59;2.35;;;0.80;;
48014;SDS011;33780;51.034;7.120;2022-11-15T16:12:34;2.45;;;0.90;;
48014;SDS011;33780;51.034;7.120;2022-11-15T16:15:00;2.47;;;0.80;;
48014;SDS011;33780;51.034;7.120;2022-11-15T16:17:26;2.30;;;0.80;;
48014;SDS011;33780;51.034;7.120;2022-11-15T16:19:55;4.30;;;0.95;;
48014;SDS011;33780;51.034;7.120;2022-11-15T16:22:21;2.40;;;0.90;;
48014;SDS011;33780;51.034;7.120;2022-11-15T16:24:46;1.35;;;0.65;;
48014;SDS011;33780;51.034;7.120;2022-11-15T16:27:15;2.42;;;0.90;;
48014;SDS011;33780;51.034;7.120;2022-11-15T16:29:42;3.30;;;0.68;;
48014;SDS011;33780;51.034;7.120;2022-11-15T16:32:08;1.55;;;0.75;;
48014;SDS011;33780;51.034;7.120;2022-11-15T16:34:34;1.67;;;0.80;;
48014;SDS011;33780;51.034;7.120;2022-11-15T16:36:59;2.00;;;0.80;;
48014;SDS011;33780;51.034;7.120;2022-11-15T16:39:24;1.92;;;0.60;;
48014;SDS011;33780;51.034;7.120;2022-11-15T16:41:50;2.72;;;0.80;;
48014;SDS011;33780;51.034;7.120;2022-11-15T16:44:15;2.30;;;0.80;;
48014;SDS011;33780;51.034;7.120;2022-11-15T16:46:41;2.00;;;1.10;;